sensor_id;sensor_type;location;lat;lon;timestamp;pressure;altitude;pressure_sealevel;temperature;humidity
66887;BME280;67239;51.680;5.976;2023-08-01T00:01:44;99755.72;;;16.24;100.00
66887;BME280;67239;51.680;5.976;2023-08-01T00:04:12;99754.88;;;16.24;100.00
66887;BME280;67239;51.680;5.976;2023-08-01T00:06:39;99753.06;;;16.24;100.00
66887;BME280;67239;51.680;5.976;2023-08-01T00:09:06;99749.47;;;16.25;100.00
66887;BME280;67239;51.680;5.976;2023-08-01T00:11:33;99755.63;;;16.26;100.00
66887;BME280;67239;51.680;5.976;2023-08-01T00:14:00;99753.91;;;16.25;100.00
66887;BME280;67239;51.680;5.976;2023-08-01T00:16:30;99755.63;;;16.26;100.00
66887;BME280;67239;51.680;5.976;2023-08-01T00:18:59;99754.78;;;16.25;100.00
66887;BME280;67239;51.680;5.976;2023-08-01T00:21:26;99746.81;;;16.25;100.00
66887;BME280;67239;51.680;5.976;2023-08-01T00:23:53;99745.94;;;16.25;100.00
66887;BME280;67239;51.680;5.976;2023-08-01T00:26:20;99738.91;;;16.24;100.00
66887;BME280;67239;51.680;5.976;2023-08-01T00:28:47;99723.81;;;16.24;100.00
66887;BME280;67239;51.680;5.976;2023-08-01T00:31:14;99717.63;;;16.24;100.00
66887;BME280;67239;51.680;5.976;2023-08-01T00:33:41;99715.84;;;16.24;100.00
66887;BME280;67239;51.680;5.976;2023-08-01T00:36:08;99720.41;;;16.22;100.00
66887;BME280;67239;51.680;5.976;2023-08-01T00:38:38;99724.91;;;16.22;100.00
66887;BME280;67239;51.680;5.976;2023-08-01T00:41:05;99716.81;;;16.23;100.00
66887;BME280;67239;51.680;5.976;2023-08-01T00:43:32;99711.50;;;16.23;100.00
66887;BME280;67239;51.680;5.976;2023-08-01T00:46:00;99716.94;;;16.22;100.00
66887;BME280;67239;51.680;5.976;2023-08-01T00:48:30;99722.34;;;16.20;100.00
66887;BME280;67239;51.680;5.976;2023-08-01T00:50:59;99720.41;;;16.22;100.00
66887;BME280;67239;51.680;5.976;2023-08-01T00:53:29;99711.59;;;16.22;100.00
66887;BME280;67239;51.680;5.976;2023-08-01T00:56:00;99704.34;;;16.24;100.00
66887;BME280;67239;51.680;5.976;2023-08-01T00:58:27;99702.66;;;16.23;100.00
66887;BME280;67239;51.680;5.976;2023-08-01T01:00:54;99695.41;;;16.25;100.00
66887;BME280;67239;51.680;5.976;2023-08-01T01:03:26;99698.81;;;16.27;100.00
66887;BME280;67239;51.680;5.976;2023-08-01T01:06:01;99698.94;;;16.25;100.00
66887;BME280;67239;51.680;5.976;2023-08-01T01:08:34;99708.94;;;16.22;100.00
66887;BME280;67239;51.680;5.976;2023-08-01T01:11:01;99704.81;;;16.18;100.00
66887;BME280;67239;51.680;5.976;2023-08-01T01:13:28;99699.81;;;16.13;100.00
66887;BME280;67239;51.680;5.976;2023-08-01T01:15:56;99694.72;;;16.10;100.00
66887;BME280;67239;51.680;5.976;2023-08-01T01:18:23;99693.97;;;16.08;100.00
66887;BME280;67239;51.680;5.976;2023-08-01T01:20:50;99703.88;;;16.06;100.00
66887;BME280;67239;51.680;5.976;2023-08-01T01:23:17;99705.78;;;16.04;100.00
66887;BME280;67239;51.680;5.976;2023-08-01T01:25:51;99712.91;;;16.03;100.00
66887;BME280;67239;51.680;5.976;2023-08-01T01:28:19;99713.88;;;16.02;100.00
66887;BME280;67239;51.680;5.976;2023-08-01T01:30:48;99698.91;;;16.01;100.00
66887;BME280;67239;51.680;5.976;2023-08-01T01:33:16;99691.75;;;16.02;100.00
66887;BME280;67239;51.680;5.976;2023-08-01T01:35:44;99688.97;;;16.03;100.00
66887;BME280;67239;51.680;5.976;2023-08-01T01:38:11;99693.34;;;16.04;100.00
66887;BME280;67239;51.680;5.976;2023-08-01T01:40:38;99694.22;;;16.05;100.00
66887;BME280;67239;51.680;5.976;2023-08-01T01:43:06;99688.13;;;16.03;100.00
66887;BME280;67239;51.680;5.976;2023-08-01T01:45:33;99693.47;;;16.03;100.00
66887;BME280;67239;51.680;5.976;2023-08-01T01:48:00;99687.31;;;16.02;100.00
66887;BME280;67239;51.680;5.976;2023-08-01T01:50:28;99686.44;;;16.02;100.00
66887;BME280;67239;51.680;5.976;2023-08-01T01:52:55;99686.44;;;16.02;100.00
66887;BME280;67239;51.680;5.976;2023-08-01T01:55:22;99682.94;;;16.01;100.00
66887;BME280;67239;51.680;5.976;2023-08-01T01:57:49;99678.69;;;15.98;100.00
66887;BME280;67239;51.680;5.976;2023-08-01T02:00:16;99689.44;;;15.97;100.00
66887;BME280;67239;51.680;5.976;2023-08-01T02:02:43;99685.94;;;15.96;100.00
66887;BME280;67239;51.680;5.976;2023-08-01T02:05:11;99683.38;;;15.95;100.00
66887;BME280;67239;51.680;5.976;2023-08-01T02:07:38;99686.97;;;15.94;100.00
66887;BME280;67239;51.680;5.976;2023-08-01T02:10:05;99676.59;;;15.91;100.00
66887;BME280;67239;51.680;5.976;2023-08-01T02:12:33;99683.81;;;15.89;100.00
66887;BME280;67239;51.680;5.976;2023-08-01T02:15:02;99684.88;;;15.86;100.00
66887;BME280;67239;51.680;5.976;2023-08-01T02:17:29;99675.50;;;15.80;100.00
66887;BME280;67239;51.680;5.976;2023-08-01T02:19:58;99676.66;;;15.76;100.00
66887;BME280;67239;51.680;5.976;2023-08-01T02:22:25;99680.28;;;15.75;100.00
66887;BME280;67239;51.680;5.976;2023-08-01T02:24:53;99677.00;;;15.72;100.00
66887;BME280;67239;51.680;5.976;2023-08-01T02:27:21;99678.81;;;15.71;100.00
66887;BME280;67239;51.680;5.976;2023-08-01T02:29:48;99675.41;;;15.69;100.00
66887;BME280;67239;51.680;5.976;2023-08-01T02:32:17;99676.25;;;15.69;100.00
66887;BME280;67239;51.680;5.976;2023-08-01T02:34:45;99677.19;;;15.68;100.00
66887;BME280;67239;51.680;5.976;2023-08-01T02:37:12;99686.03;;;15.69;100.00
66887;BME280;67239;51.680;5.976;2023-08-01T02:39:39;99687.00;;;15.68;100.00
66887;BME280;67239;51.680;5.976;2023-08-01T02:42:07;99690.50;;;15.68;100.00
66887;BME280;67239;51.680;5.976;2023-08-01T02:44:35;99693.88;;;15.71;100.00
66887;BME280;67239;51.680;5.976;2023-08-01T02:47:02;99689.66;;;15.68;100.00
66887;BME280;67239;51.680;5.976;2023-08-01T02:49:30;99695.81;;;15.68;100.00
66887;BME280;67239;51.680;5.976;2023-08-01T02:51:57;99692.31;;;15.68;100.00
66887;BME280;67239;51.680;5.976;2023-08-01T02:54:25;99699.53;;;15.66;100.00
66887;BME280;67239;51.680;5.976;2023-08-01T02:56:52;99700.28;;;15.68;100.00
66887;BME280;67239;51.680;5.976;2023-08-01T02:59:19;99694.84;;;15.69;100.00
66887;BME280;67239;51.680;5.976;2023-08-01T03:01:46;99704.63;;;15.69;100.00
66887;BME280;67239;51.680;5.976;2023-08-01T03:04:14;99699.31;;;15.69;100.00
66887;BME280;67239;51.680;5.976;2023-08-01T03:06:41;99708.13;;;15.69;100.00
66887;BME280;67239;51.680;5.976;2023-08-01T03:09:08;99701.97;;;15.69;100.00
66887;BME280;67239;51.680;5.976;2023-08-01T03:11:35;99705.59;;;15.68;100.00
66887;BME280;67239;51.680;5.976;2023-08-01T03:14:04;99702.31;;;15.64;100.00
66887;BME280;67239;51.680;5.976;2023-08-01T03:16:31;99704.00;;;15.65;100.00
66887;BME280;67239;51.680;5.976;2023-08-01T03:18:58;99697.75;;;15.66;100.00
66887;BME280;67239;51.680;5.976;2023-08-01T03:21:32;99697.81;;;15.65;100.00
66887;BME280;67239;51.680;5.976;2023-08-01T03:24:03;99697.81;;;15.65;100.00
66887;BME280;67239;51.680;5.976;2023-08-01T03:26:33;99701.56;;;15.62;100.00
66887;BME280;67239;51.680;5.976;2023-08-01T03:29:00;99693.78;;;15.59;100.00
66887;BME280;67239;51.680;5.976;2023-08-01T03:31:27;99689.22;;;15.61;100.00
66887;BME280;67239;51.680;5.976;2023-08-01T03:33:55;99692.72;;;15.62;100.00
66887;BME280;67239;51.680;5.976;2023-08-01T03:36:24;99687.63;;;15.59;100.00
66887;BME280;67239;51.680;5.976;2023-08-01T03:38:54;99680.94;;;15.53;100.00
66887;BME280;67239;51.680;5.976;2023-08-01T03:41:22;99695.28;;;15.50;100.00
66887;BME280;67239;51.680;5.976;2023-08-01T03:43:49;99693.78;;;15.46;100.00
66887;BME280;67239;51.680;5.976;2023-08-01T03:46:16;99696.44;;;15.46;100.00
66887;BME280;67239;51.680;5.976;2023-08-01T03:48:43;99703.66;;;15.44;100.00
66887;BME280;67239;51.680;5.976;2023-08-01T03:51:10;99708.22;;;15.42;100.00
66887;BME280;67239;51.680;5.976;2023-08-01T03:53:37;99708.34;;;15.41;100.00
66887;BME280;67239;51.680;5.976;2023-08-01T03:56:04;99710.06;;;15.42;100.00
66887;BME280;67239;51.680;5.976;2023-08-01T03:58:32;99719.84;;;15.41;100.00
66887;BME280;67239;51.680;5.976;2023-08-01T04:00:59;99716.31;;;15.41;100.00
66887;BME280;67239;51.680;5.976;2023-08-01T04:03:26;99710.06;;;15.42;100.00
66887;BME280;67239;51.680;5.976;2023-08-01T04:05:54;99714.53;;;15.41;100.00
66887;BME280;67239;51.680;5.976;2023-08-01T04:08:21;99714.53;;;15.41;100.00
66887;BME280;67239;51.680;5.976;2023-08-01T04:10:49;99704.84;;;15.40;100.00
66887;BME280;67239;51.680;5.976;2023-08-01T04:13:16;99702.91;;;15.42;100.00
66887;BME280;67239;51.680;5.976;2023-08-01T04:15:44;99708.97;;;15.44;100.00
66887;BME280;67239;51.680;5.976;2023-08-01T04:18:11;99713.34;;;15.45;100.00
66887;BME280;67239;51.680;5.976;2023-08-01T04:20:38;99716.00;;;15.45;100.00
66887;BME280;67239;51.680;5.976;2023-08-01T04:23:06;99711.56;;;15.46;100.00
66887;BME280;67239;51.680;5.976;2023-08-01T04:25:33;99710.69;;;15.45;100.00
66887;BME280;67239;51.680;5.976;2023-08-01T04:28:02;99711.44;;;15.47;100.00
66887;BME280;67239;51.680;5.976;2023-08-01T04:30:30;99707.63;;;15.51;100.00
66887;BME280;67239;51.680;5.976;2023-08-01T04:32:57;99708.25;;;15.55;100.00
66887;BME280;67239;51.680;5.976;2023-08-01T04:35:25;99710.59;;;15.60;100.00
66887;BME280;67239;51.680;5.976;2023-08-01T04:37:52;99716.41;;;15.65;100.00
66887;BME280;67239;51.680;5.976;2023-08-01T04:40:19;99716.09;;;15.69;100.00
66887;BME280;67239;51.680;5.976;2023-08-01T04:42:46;99723.00;;;15.72;100.00
66887;BME280;67239;51.680;5.976;2023-08-01T04:45:13;99724.63;;;15.75;100.00
66887;BME280;67239;51.680;5.976;2023-08-01T04:47:41;99719.19;;;15.76;100.00
66887;BME280;67239;51.680;5.976;2023-08-01T04:50:08;99721.41;;;15.82;100.00
66887;BME280;67239;51.680;5.976;2023-08-01T04:52:35;99720.06;;;15.90;100.00
66887;BME280;67239;51.680;5.976;2023-08-01T04:55:09;99722.41;;;15.94;100.00
66887;BME280;67239;51.680;5.976;2023-08-01T04:57:36;99718.78;;;15.95;100.00
66887;BME280;67239;51.680;5.976;2023-08-01T05:00:04;99720.50;;;15.96;100.00
66887;BME280;67239;51.680;5.976;2023-08-01T05:02:31;99716.97;;;15.96;100.00
66887;BME280;67239;51.680;5.976;2023-08-01T05:04:58;99709.94;;;15.95;100.00
66887;BME280;67239;51.680;5.976;2023-08-01T05:07:26;99722.81;;;16.01;100.00
66887;BME280;67239;51.680;5.976;2023-08-01T05:09:53;99728.84;;;16.03;100.00
66887;BME280;67239;51.680;5.976;2023-08-01T05:12:20;99725.16;;;16.06;100.00
66887;BME280;67239;51.680;5.976;2023-08-01T05:14:47;99736.28;;;16.11;100.00
66887;BME280;67239;51.680;5.976;2023-08-01T05:17:15;99731.59;;;16.14;100.00
66887;BME280;67239;51.680;5.976;2023-08-01T05:19:44;99731.91;;;16.23;100.00
66887;BME280;67239;51.680;5.976;2023-08-01T05:22:11;99729.22;;;16.36;100.00
66887;BME280;67239;51.680;5.976;2023-08-01T05:24:38;99735.25;;;16.51;100.00
66887;BME280;67239;51.680;5.976;2023-08-01T05:27:05;99736.47;;;16.58;100.00
66887;BME280;67239;51.680;5.976;2023-08-01T05:29:33;99738.53;;;16.54;100.00
66887;BME280;67239;51.680;5.976;2023-08-01T05:32:00;99738.19;;;16.59;100.00
66887;BME280;67239;51.680;5.976;2023-08-01T05:34:28;99736.31;;;16.48;100.00
66887;BME280;67239;51.680;5.976;2023-08-01T05:36:55;99738.56;;;16.41;100.00
66887;BME280;67239;51.680;5.976;2023-08-01T05:39:22;99736.59;;;16.32;100.00
66887;BME280;67239;51.680;5.976;2023-08-01T05:41:50;99745.94;;;16.25;100.00
66887;BME280;67239;51.680;5.976;2023-08-01T05:44:17;99747.53;;;16.27;100.00
66887;BME280;67239;51.680;5.976;2023-08-01T05:46:44;99752.19;;;16.37;100.00
66887;BME280;67239;51.680;5.976;2023-08-01T05:49:12;99750.41;;;16.61;100.00
66887;BME280;67239;51.680;5.976;2023-08-01T05:51:39;99746.66;;;16.64;100.00
66887;BME280;67239;51.680;5.976;2023-08-01T05:54:06;99748.69;;;16.73;100.00
66887;BME280;67239;51.680;5.976;2023-08-01T05:56:34;99758.81;;;17.17;100.00
66887;BME280;67239;51.680;5.976;2023-08-01T05:59:01;99763.75;;;17.10;100.00
66887;BME280;67239;51.680;5.976;2023-08-01T06:01:28;99759.00;;;17.02;100.00
66887;BME280;67239;51.680;5.976;2023-08-01T06:03:55;99759.22;;;16.99;100.00
66887;BME280;67239;51.680;5.976;2023-08-01T06:06:22;99758.13;;;17.02;100.00
66887;BME280;67239;51.680;5.976;2023-08-01T06:08:49;99762.63;;;17.01;100.00
66887;BME280;67239;51.680;5.976;2023-08-01T06:11:19;99754.34;;;17.17;100.00
66887;BME280;67239;51.680;5.976;2023-08-01T06:13:46;99768.94;;;17.36;100.00
66887;BME280;67239;51.680;5.976;2023-08-01T06:16:15;99764.22;;;17.39;100.00
66887;BME280;67239;51.680;5.976;2023-08-01T06:18:42;99772.72;;;17.45;100.00
66887;BME280;67239;51.680;5.976;2023-08-01T06:21:10;99770.28;;;17.42;99.15
66887;BME280;67239;51.680;5.976;2023-08-01T06:23:37;99768.19;;;17.34;99.42
66887;BME280;67239;51.680;5.976;2023-08-01T06:26:04;99772.78;;;17.32;100.00
66887;BME280;67239;51.680;5.976;2023-08-01T06:28:31;99781.03;;;17.29;100.00
66887;BME280;67239;51.680;5.976;2023-08-01T06:30:58;99776.88;;;17.25;100.00
66887;BME280;67239;51.680;5.976;2023-08-01T06:33:25;99783.28;;;17.22;100.00
66887;BME280;67239;51.680;5.976;2023-08-01T06:35:52;99774.16;;;17.13;100.00
66887;BME280;67239;51.680;5.976;2023-08-01T06:38:19;99779.00;;;17.08;100.00
66887;BME280;67239;51.680;5.976;2023-08-01T06:40:46;99778.47;;;17.03;100.00
66887;BME280;67239;51.680;5.976;2023-08-01T06:43:13;99782.22;;;17.00;100.00
66887;BME280;67239;51.680;5.976;2023-08-01T06:45:41;99786.28;;;16.93;100.00
66887;BME280;67239;51.680;5.976;2023-08-01T06:48:09;99786.50;;;16.90;99.72
66887;BME280;67239;51.680;5.976;2023-08-01T06:50:36;99782.00;;;17.03;100.00
66887;BME280;67239;51.680;5.976;2023-08-01T06:53:03;99779.66;;;17.23;100.00
66887;BME280;67239;51.680;5.976;2023-08-01T06:55:30;99781.53;;;17.45;98.48
66887;BME280;67239;51.680;5.976;2023-08-01T06:57:57;99783.88;;;17.61;96.30
66887;BME280;67239;51.680;5.976;2023-08-01T07:00:24;99781.72;;;17.78;96.38
66887;BME280;67239;51.680;5.976;2023-08-01T07:02:51;99778.28;;;18.11;95.59
66887;BME280;67239;51.680;5.976;2023-08-01T07:05:19;99774.78;;;18.11;96.99
66887;BME280;67239;51.680;5.976;2023-08-01T07:07:46;99782.91;;;18.09;93.46
66887;BME280;67239;51.680;5.976;2023-08-01T07:10:14;99788.34;;;18.08;95.41
66887;BME280;67239;51.680;5.976;2023-08-01T07:12:41;99783.59;;;18.11;93.92
66887;BME280;67239;51.680;5.976;2023-08-01T07:15:09;99788.84;;;18.13;92.10
66887;BME280;67239;51.680;5.976;2023-08-01T07:17:36;99798.28;;;18.06;92.88
66887;BME280;67239;51.680;5.976;2023-08-01T07:20:04;99791.00;;;18.08;92.47
66887;BME280;67239;51.680;5.976;2023-08-01T07:22:31;99793.44;;;18.11;93.79
66887;BME280;67239;51.680;5.976;2023-08-01T07:24:58;99796.59;;;18.16;93.61
66887;BME280;67239;51.680;5.976;2023-08-01T07:27:25;99806.78;;;18.11;92.09
66887;BME280;67239;51.680;5.976;2023-08-01T07:29:53;99801.28;;;18.01;92.30
66887;BME280;67239;51.680;5.976;2023-08-01T07:32:20;99798.28;;;18.06;90.59
66887;BME280;67239;51.680;5.976;2023-08-01T07:34:47;99803.00;;;18.25;89.22
66887;BME280;67239;51.680;5.976;2023-08-01T07:37:14;99798.88;;;18.43;90.61
66887;BME280;67239;51.680;5.976;2023-08-01T07:39:41;99804.91;;;18.68;89.70
66887;BME280;67239;51.680;5.976;2023-08-01T07:42:08;99803.19;;;18.90;87.17
66887;BME280;67239;51.680;5.976;2023-08-01T07:44:35;99795.75;;;19.05;85.35
66887;BME280;67239;51.680;5.976;2023-08-01T07:47:03;99798.97;;;19.20;83.68
66887;BME280;67239;51.680;5.976;2023-08-01T07:49:31;99796.16;;;19.21;85.03
66887;BME280;67239;51.680;5.976;2023-08-01T07:51:58;99791.69;;;19.22;85.12
66887;BME280;67239;51.680;5.976;2023-08-01T07:54:27;99788.94;;;19.33;83.66
66887;BME280;67239;51.680;5.976;2023-08-01T07:56:54;99798.44;;;19.26;81.21
66887;BME280;67239;51.680;5.976;2023-08-01T07:59:21;99791.16;;;19.28;83.95
66887;BME280;67239;51.680;5.976;2023-08-01T08:01:49;99790.53;;;19.36;83.54
66887;BME280;67239;51.680;5.976;2023-08-01T08:04:16;99797.56;;;19.37;84.74
66887;BME280;67239;51.680;5.976;2023-08-01T08:06:43;99794.94;;;19.47;84.06
66887;BME280;67239;51.680;5.976;2023-08-01T08:09:14;99793.91;;;19.59;82.46
66887;BME280;67239;51.680;5.976;2023-08-01T08:11:41;99787.25;;;19.75;82.71
66887;BME280;67239;51.680;5.976;2023-08-01T08:14:08;99789.38;;;19.92;82.43
66887;BME280;67239;51.680;5.976;2023-08-01T08:16:36;99791.75;;;19.95;82.80
66887;BME280;67239;51.680;5.976;2023-08-01T08:19:04;99793.66;;;19.83;82.29
66887;BME280;67239;51.680;5.976;2023-08-01T08:21:31;99804.66;;;19.48;82.30
66887;BME280;67239;51.680;5.976;2023-08-01T08:23:58;99820.41;;;18.97;83.38
66887;BME280;67239;51.680;5.976;2023-08-01T08:26:26;99822.78;;;18.56;86.06
66887;BME280;67239;51.680;5.976;2023-08-01T08:28:55;99817.91;;;18.39;87.80
66887;BME280;67239;51.680;5.976;2023-08-01T08:31:22;99821.09;;;18.33;89.49
66887;BME280;67239;51.680;5.976;2023-08-01T08:33:49;99817.22;;;18.25;91.02
66887;BME280;67239;51.680;5.976;2023-08-01T08:36:17;99822.78;;;18.11;90.96
66887;BME280;67239;51.680;5.976;2023-08-01T08:38:45;99822.97;;;17.85;91.98
66887;BME280;67239;51.680;5.976;2023-08-01T08:41:35;99825.41;;;17.52;94.13
66887;BME280;67239;51.680;5.976;2023-08-01T08:44:10;99837.78;;;17.29;96.57
66887;BME280;67239;51.680;5.976;2023-08-01T08:46:42;99823.19;;;17.11;97.55
66887;BME280;67239;51.680;5.976;2023-08-01T08:49:11;99823.25;;;16.98;97.26
66887;BME280;67239;51.680;5.976;2023-08-01T08:51:39;99822.59;;;16.81;98.28
66887;BME280;67239;51.680;5.976;2023-08-01T08:54:08;99822.66;;;16.68;99.95
66887;BME280;67239;51.680;5.976;2023-08-01T08:56:36;99826.81;;;16.59;100.00
66887;BME280;67239;51.680;5.976;2023-08-01T08:59:05;99845.91;;;16.53;100.00
66887;BME280;67239;51.680;5.976;2023-08-01T09:01:32;99837.50;;;16.34;100.00
66887;BME280;67239;51.680;5.976;2023-08-01T09:04:02;99812.00;;;16.05;100.00
66887;BME280;67239;51.680;5.976;2023-08-01T09:06:32;99835.28;;;15.89;100.00
66887;BME280;67239;51.680;5.976;2023-08-01T09:09:09;99831.66;;;15.77;100.00
66887;BME280;67239;51.680;5.976;2023-08-01T09:11:50;99839.38;;;15.67;100.00
66887;BME280;67239;51.680;5.976;2023-08-01T09:14:19;99831.09;;;15.59;100.00
66887;BME280;67239;51.680;5.976;2023-08-01T09:16:47;99830.97;;;15.60;100.00
66887;BME280;67239;51.680;5.976;2023-08-01T09:19:19;99828.13;;;15.76;100.00
66887;BME280;67239;51.680;5.976;2023-08-01T09:21:49;99829.66;;;15.93;100.00
66887;BME280;67239;51.680;5.976;2023-08-01T09:24:19;99846.03;;;16.13;100.00
66887;BME280;67239;51.680;5.976;2023-08-01T09:26:48;99842.22;;;16.17;100.00
66887;BME280;67239;51.680;5.976;2023-08-01T09:29:17;99850.84;;;16.21;100.00
66887;BME280;67239;51.680;5.976;2023-08-01T09:31:46;99850.91;;;16.19;100.00
66887;BME280;67239;51.680;5.976;2023-08-01T09:34:23;99853.69;;;16.18;100.00
66887;BME280;67239;51.680;5.976;2023-08-01T09:37:00;99853.47;;;16.08;100.00
66887;BME280;67239;51.680;5.976;2023-08-01T09:39:27;99852.75;;;16.06;100.00
66887;BME280;67239;51.680;5.976;2023-08-01T09:41:56;99852.63;;;16.20;100.00
66887;BME280;67239;51.680;5.976;2023-08-01T09:44:28;99847.41;;;16.32;100.00
66887;BME280;67239;51.680;5.976;2023-08-01T09:47:03;99854.41;;;16.45;100.00
66887;BME280;67239;51.680;5.976;2023-08-01T09:49:31;99848.84;;;16.61;100.00
66887;BME280;67239;51.680;5.976;2023-08-01T09:51:59;99844.97;;;16.79;100.00
66887;BME280;67239;51.680;5.976;2023-08-01T09:54:28;99857.84;;;16.85;100.00
66887;BME280;67239;51.680;5.976;2023-08-01T09:56:56;99866.06;;;16.95;100.00
66887;BME280;67239;51.680;5.976;2023-08-01T09:59:24;99867.19;;;17.03;100.00
66887;BME280;67239;51.680;5.976;2023-08-01T10:01:54;99871.19;;;17.22;100.00
66887;BME280;67239;51.680;5.976;2023-08-01T10:04:31;99866.06;;;17.43;100.00
66887;BME280;67239;51.680;5.976;2023-08-01T10:07:08;99876.47;;;17.70;100.00
66887;BME280;67239;51.680;5.976;2023-08-01T10:09:39;99865.13;;;17.91;99.03
66887;BME280;67239;51.680;5.976;2023-08-01T10:12:09;99869.78;;;18.00;98.64
66887;BME280;67239;51.680;5.976;2023-08-01T10:14:40;99874.03;;;18.03;99.44
66887;BME280;67239;51.680;5.976;2023-08-01T10:17:10;99875.28;;;18.10;98.29
66887;BME280;67239;51.680;5.976;2023-08-01T10:19:39;99883.16;;;18.23;97.47
66887;BME280;67239;51.680;5.976;2023-08-01T10:22:09;99883.78;;;18.38;96.13
66887;BME280;67239;51.680;5.976;2023-08-01T10:24:37;99876.53;;;18.52;95.83
66887;BME280;67239;51.680;5.976;2023-08-01T10:27:14;99873.13;;;18.61;96.30
66887;BME280;67239;51.680;5.976;2023-08-01T10:30:04;99874.09;;;18.71;94.97
66887;BME280;67239;51.680;5.976;2023-08-01T10:32:38;99877.59;;;18.83;94.90
66887;BME280;67239;51.680;5.976;2023-08-01T10:35:07;99873.69;;;18.99;91.89
66887;BME280;67239;51.680;5.976;2023-08-01T10:37:45;99882.41;;;19.12;90.19
66887;BME280;67239;51.680;5.976;2023-08-01T10:40:15;99873.44;;;19.13;92.19
66887;BME280;67239;51.680;5.976;2023-08-01T10:42:44;99871.47;;;19.15;89.88
66887;BME280;67239;51.680;5.976;2023-08-01T10:45:23;99871.44;;;19.27;91.18
66887;BME280;67239;51.680;5.976;2023-08-01T10:48:08;99865.75;;;19.52;90.01
66887;BME280;67239;51.680;5.976;2023-08-01T10:50:37;99863.66;;;19.56;88.90
66887;BME280;67239;51.680;5.976;2023-08-01T10:53:07;99861.28;;;19.74;89.12
66887;BME280;67239;51.680;5.976;2023-08-01T10:55:44;99868.06;;;19.78;88.67
66887;BME280;67239;51.680;5.976;2023-08-01T10:58:14;99875.38;;;19.76;88.17
66887;BME280;67239;51.680;5.976;2023-08-01T11:00:42;99880.75;;;19.97;88.85
66887;BME280;67239;51.680;5.976;2023-08-01T11:03:10;99880.88;;;20.17;86.61
66887;BME280;67239;51.680;5.976;2023-08-01T11:05:38;99880.03;;;20.47;84.24
66887;BME280;67239;51.680;5.976;2023-08-01T11:08:05;99882.50;;;20.60;83.63
66887;BME280;67239;51.680;5.976;2023-08-01T11:10:33;99877.03;;;20.72;85.11
66887;BME280;67239;51.680;5.976;2023-08-01T11:13:00;99880.06;;;20.57;83.34
66887;BME280;67239;51.680;5.976;2023-08-01T11:15:27;99906.44;;;20.31;77.54
66887;BME280;67239;51.680;5.976;2023-08-01T11:17:55;99899.13;;;19.91;78.28
66887;BME280;67239;51.680;5.976;2023-08-01T11:20:25;99896.09;;;19.63;81.21
66887;BME280;67239;51.680;5.976;2023-08-01T11:23:00;99900.38;;;19.54;82.65
66887;BME280;67239;51.680;5.976;2023-08-01T11:25:38;99899.19;;;19.47;81.56
66887;BME280;67239;51.680;5.976;2023-08-01T11:28:15;99897.88;;;19.41;82.55
66887;BME280;67239;51.680;5.976;2023-08-01T11:30:44;99908.19;;;19.46;83.20
66887;BME280;67239;51.680;5.976;2023-08-01T11:33:18;99900.91;;;19.69;84.06
66887;BME280;67239;51.680;5.976;2023-08-01T11:35:52;99896.16;;;20.05;82.88
66887;BME280;67239;51.680;5.976;2023-08-01T11:38:26;99898.69;;;20.28;78.13
66887;BME280;67239;51.680;5.976;2023-08-01T11:40:59;99909.31;;;20.39;75.74
66887;BME280;67239;51.680;5.976;2023-08-01T11:43:41;99904.97;;;20.48;71.70
66887;BME280;67239;51.680;5.976;2023-08-01T11:46:09;99916.00;;;20.55;70.02
66887;BME280;67239;51.680;5.976;2023-08-01T11:48:37;99912.34;;;20.56;72.35
66887;BME280;67239;51.680;5.976;2023-08-01T11:51:04;99902.31;;;20.79;74.61
66887;BME280;67239;51.680;5.976;2023-08-01T11:53:33;99897.59;;;21.02;76.14
66887;BME280;67239;51.680;5.976;2023-08-01T11:56:06;99902.13;;;21.12;74.08
66887;BME280;67239;51.680;5.976;2023-08-01T11:58:35;99910.72;;;21.05;69.36
66887;BME280;67239;51.680;5.976;2023-08-01T12:01:10;99919.56;;;20.96;71.27
66887;BME280;67239;51.680;5.976;2023-08-01T12:03:44;99911.13;;;21.01;71.38
66887;BME280;67239;51.680;5.976;2023-08-01T12:06:16;99905.41;;;21.15;73.32
66887;BME280;67239;51.680;5.976;2023-08-01T12:08:46;99913.59;;;21.23;69.93
66887;BME280;67239;51.680;5.976;2023-08-01T12:11:18;99911.47;;;21.27;70.22
66887;BME280;67239;51.680;5.976;2023-08-01T12:13:47;99921.31;;;21.26;71.80
66887;BME280;67239;51.680;5.976;2023-08-01T12:16:15;99910.16;;;21.12;70.05
66887;BME280;67239;51.680;5.976;2023-08-01T12:18:46;99906.91;;;20.98;69.29
66887;BME280;67239;51.680;5.976;2023-08-01T12:21:26;99917.97;;;20.74;67.86
66887;BME280;67239;51.680;5.976;2023-08-01T12:23:53;99920.38;;;20.56;68.18
66887;BME280;67239;51.680;5.976;2023-08-01T12:26:22;99935.78;;;20.42;65.40
66887;BME280;67239;51.680;5.976;2023-08-01T12:28:50;99938.81;;;20.28;65.21
66887;BME280;67239;51.680;5.976;2023-08-01T12:31:21;99941.44;;;20.18;66.24
66887;BME280;67239;51.680;5.976;2023-08-01T12:33:49;99941.22;;;20.10;67.59
66887;BME280;67239;51.680;5.976;2023-08-01T12:36:19;99942.88;;;20.22;69.15
66887;BME280;67239;51.680;5.976;2023-08-01T12:38:46;99951.34;;;20.48;66.40
66887;BME280;67239;51.680;5.976;2023-08-01T12:41:14;99942.06;;;20.53;65.59
66887;BME280;67239;51.680;5.976;2023-08-01T12:43:42;99945.91;;;20.91;65.21
66887;BME280;67239;51.680;5.976;2023-08-01T12:46:10;99948.25;;;21.15;66.01
66887;BME280;67239;51.680;5.976;2023-08-01T12:48:37;99946.47;;;21.35;66.80
66887;BME280;67239;51.680;5.976;2023-08-01T12:51:07;99952.97;;;21.33;64.89
66887;BME280;67239;51.680;5.976;2023-08-01T12:53:35;99954.34;;;21.27;63.61
66887;BME280;67239;51.680;5.976;2023-08-01T12:56:07;99950.53;;;21.30;66.04
66887;BME280;67239;51.680;5.976;2023-08-01T12:58:34;99945.06;;;21.41;64.29
66887;BME280;67239;51.680;5.976;2023-08-01T13:01:02;99957.38;;;21.63;63.91
66887;BME280;67239;51.680;5.976;2023-08-01T13:03:33;99960.09;;;22.02;61.97